Time;durP1;ratioP1;P1;durP2;ratioP2;P2;SDS_P1;SDS_P2;PMS_P1;PMS_P2;Temp;Humidity;BMP_temperature;BMP_pressure;BME280_temperature;BME280_humidity;BME280_pressure;Samples;Min_cycle;Max_cycle;Signal;HPM_P1;HPM_P2
2021/08/01 00:00:32;;;;;;;0.10;0.10;;;;;;;;;;4812542;29;20045;-90
2021/08/01 00:02:58;;;;;;;0.20;0.20;;;;;;;;;;4827610;29;20045;-89
2021/08/01 00:05:25;;;;;;;0.10;0.10;;;;;;;;;;4827509;29;20052;-89
2021/08/01 00:07:51;;;;;;;0.10;0.10;;;;;;;;;;4812248;29;20133;-89
2021/08/01 00:10:17;;;;;;;0.17;0.17;;;;;;;;;;4812424;29;20050;-90
2021/08/01 00:12:43;;;;;;;0.10;0.10;;;;;;;;;;4812385;29;20041;-89
2021/08/01 00:15:10;;;;;;;0.10;0.10;;;;;;;;;;4812206;29;20080;-89
2021/08/01 00:17:37;;;;;;;0.20;0.20;;;;;;;;;;4811888;29;20038;-89
2021/08/01 00:20:03;;;;;;;0.10;0.10;;;;;;;;;;4811904;29;20049;-88
2021/08/01 00:22:29;;;;;;;0.10;0.10;;;;;;;;;;4811803;29;20049;-89
2021/08/01 00:24:55;;;;;;;0.10;0.10;;;;;;;;;;4827197;29;20050;-89
2021/08/01 00:27:21;;;;;;;0.10;0.10;;;;;;;;;;4812020;29;20410;-90
2021/08/01 00:29:47;;;;;;;0.20;0.20;;;;;;;;;;4812565;29;20384;-90
2021/08/01 00:32:13;;;;;;;0.10;0.10;;;;;;;;;;4797269;29;20054;-90
2021/08/01 00:34:39;;;;;;;0.10;0.10;;;;;;;;;;4812120;29;20042;-91
2021/08/01 00:37:05;;;;;;;0.10;0.10;;;;;;;;;;4812100;29;20109;-90
2021/08/01 00:39:31;;;;;;;0.10;0.10;;;;;;;;;;4812080;29;20499;-89
2021/08/01 00:41:57;;;;;;;0.10;0.10;;;;;;;;;;4826931;29;20050;-89
2021/08/01 00:44:24;;;;;;;0.10;0.10;;;;;;;;;;4796647;29;20447;-89
2021/08/01 00:46:50;;;;;;;0.20;0.20;;;;;;;;;;4826790;29;20042;-89
2021/08/01 00:49:16;;;;;;;0.10;0.10;;;;;;;;;;4826916;29;20054;-90
2021/08/01 00:51:42;;;;;;;0.10;0.10;;;;;;;;;;4811915;29;20499;-92
2021/08/01 00:54:08;;;;;;;0.20;0.20;;;;;;;;;;4811578;29;20081;-90
2021/08/01 00:56:34;;;;;;;0.10;0.10;;;;;;;;;;4811578;29;20034;-90
2021/08/01 00:59:00;;;;;;;0.20;0.20;;;;;;;;;;4810764;29;20145;-89
2021/08/01 01:01:50;;;;;;;0.10;0.10;;;;;;;;;;4811331;29;20046;-89
2021/08/01 01:04:22;;;;;;;0.10;0.10;;;;;;;;;;4821283;29;20084;-89
2021/08/01 01:06:53;;;;;;;0.10;0.10;;;;;;;;;;4826261;29;20495;-88
2021/08/01 01:09:35;;;;;;;0.80;0.80;;;;;;;;;;4811278;29;20069;-89
2021/08/01 01:12:04;;;;;;;0.10;0.10;;;;;;;;;;4842503;29;20295;-89
2021/08/01 01:14:30;;;;;;;0.10;0.10;;;;;;;;;;4826311;29;20045;-89
2021/08/01 01:17:05;;;;;;;0.10;0.10;;;;;;;;;;4810769;29;20126;-87
2021/08/01 01:19:50;;;;;;;0.20;0.20;;;;;;;;;;4810826;29;20041;-88
2021/08/01 01:22:22;;;;;;;0.13;0.13;;;;;;;;;;4825872;29;20042;-88
2021/08/01 01:24:48;;;;;;;0.10;0.10;;;;;;;;;;4810927;29;20106;-88
2021/08/01 01:27:15;;;;;;;0.20;0.20;;;;;;;;;;4810811;29;20049;-89
2021/08/01 01:29:58;;;;;;;0.10;0.10;;;;;;;;;;4810569;29;20045;-88
2021/08/01 01:32:31;;;;;;;0.17;0.17;;;;;;;;;;4826057;29;20037;-88
2021/08/01 01:34:59;;;;;;;0.10;0.10;;;;;;;;;;4810625;29;20384;-89
2021/08/01 01:37:25;;;;;;;0.20;0.20;;;;;;;;;;4810530;29;20444;-89
2021/08/01 01:39:51;;;;;;;0.20;0.20;;;;;;;;;;4810489;29;20270;-89
2021/08/01 01:42:17;;;;;;;0.10;0.10;;;;;;;;;;4825785;29;20054;-89
2021/08/01 01:44:44;;;;;;;0.10;0.10;;;;;;;;;;4825910;29;20790;-89
2021/08/01 01:47:10;;;;;;;0.10;0.10;;;;;;;;;;4810914;29;20083;-90
2021/08/01 01:49:36;;;;;;;0.10;0.10;;;;;;;;;;4810781;29;20053;-89
2021/08/01 01:52:03;;;;;;;0.10;0.10;;;;;;;;;;4810554;29;20042;-89
2021/08/01 01:54:29;;;;;;;0.10;0.10;;;;;;;;;;4810693;29;20042;-89
2021/08/01 01:56:55;;;;;;;0.20;0.20;;;;;;;;;;4810634;29;20506;-90
2021/08/01 01:59:21;;;;;;;0.10;0.10;;;;;;;;;;4810754;29;20041;-89
2021/08/01 02:01:47;;;;;;;0.20;0.20;;;;;;;;;;4825773;29;20219;-89
2021/08/01 02:04:13;;;;;;;0.10;0.10;;;;;;;;;;4810550;29;20042;-90
2021/08/01 02:06:39;;;;;;;0.30;0.30;;;;;;;;;;4810182;29;20190;-90
2021/08/01 02:09:07;;;;;;;0.10;0.10;;;;;;;;;;4810634;29;20042;-89
2021/08/01 02:11:35;;;;;;;0.28;0.28;;;;;;;;;;4810434;29;20058;-89
2021/08/01 02:14:10;;;;;;;0.10;0.10;;;;;;;;;;4810493;29;20499;-89
2021/08/01 02:16:37;;;;;;;0.20;0.20;;;;;;;;;;4810600;29;20076;-89
2021/08/01 02:19:08;;;;;;;0.10;0.10;;;;;;;;;;4810245;29;20052;-90
2021/08/01 02:21:34;;;;;;;0.10;0.10;;;;;;;;;;4810316;29;20053;-89
2021/08/01 02:24:01;;;;;;;0.10;0.10;;;;;;;;;;4810355;29;20483;-89
2021/08/01 02:26:27;;;;;;;0.10;0.10;;;;;;;;;;4810219;29;20033;-89
2021/08/01 02:28:53;;;;;;;0.10;0.10;;;;;;;;;;4810437;29;20057;-89
2021/08/01 02:31:19;;;;;;;0.22;0.22;;;;;;;;;;4810211;29;20069;-89
2021/08/01 02:33:45;;;;;;;0.10;0.10;;;;;;;;;;4825165;29;20042;-89
2021/08/01 02:36:11;;;;;;;0.10;0.10;;;;;;;;;;4810092;29;20046;-89
2021/08/01 02:38:37;;;;;;;0.20;0.20;;;;;;;;;;4810039;29;20045;-89
2021/08/01 02:41:19;;;;;;;0.10;0.10;;;;;;;;;;4810013;29;20106;-89
2021/08/01 02:43:45;;;;;;;0.10;0.10;;;;;;;;;;4810239;29;20049;-89
2021/08/01 02:46:11;;;;;;;0.10;0.10;;;;;;;;;;4825014;29;20085;-89
2021/08/01 02:48:37;;;;;;;0.10;0.10;;;;;;;;;;4825248;29;20114;-90
2021/08/01 02:51:04;;;;;;;0.10;0.10;;;;;;;;;;4809998;29;20096;-90
2021/08/01 02:53:31;;;;;;;0.10;0.10;;;;;;;;;;4825388;29;20042;-89
2021/08/01 02:55:57;;;;;;;0.10;0.10;;;;;;;;;;4810023;29;20034;-89
2021/08/01 02:58:25;;;;;;;0.20;0.20;;;;;;;;;;4809927;29;20487;-89
2021/08/01 03:00:51;;;;;;;0.30;0.10;;;;;;;;;;4809863;29;20071;-89
2021/08/01 03:03:19;;;;;;;0.10;0.10;;;;;;;;;;4809933;29;20042;-89
2021/08/01 03:05:45;;;;;;;0.10;0.10;;;;;;;;;;4824845;29;20136;-89
2021/08/01 03:08:13;;;;;;;0.10;0.10;;;;;;;;;;4809836;29;20042;-89
2021/08/01 03:10:42;;;;;;;0.20;0.20;;;;;;;;;;4810102;29;20042;-89
2021/08/01 03:13:09;;;;;;;0.10;0.10;;;;;;;;;;4809733;29;20046;-89
2021/08/01 03:15:37;;;;;;;0.10;0.10;;;;;;;;;;4810198;29;20107;-89
2021/08/01 03:18:03;;;;;;;0.20;0.20;;;;;;;;;;4824709;29;20038;-88
2021/08/01 03:20:29;;;;;;;0.10;0.10;;;;;;;;;;4809714;29;20380;-88
2021/08/01 03:22:55;;;;;;;0.10;0.10;;;;;;;;;;4813180;29;20046;-88
2021/08/01 03:25:21;;;;;;;0.10;0.10;;;;;;;;;;4812895;29;20046;-88
2021/08/01 03:27:47;;;;;;;0.10;0.10;;;;;;;;;;4812572;29;20388;-89
2021/08/01 03:30:13;;;;;;;0.10;0.10;;;;;;;;;;4812953;29;20049;-88
2021/08/01 03:32:39;;;;;;;0.10;0.10;;;;;;;;;;4827885;29;20052;-88
2021/08/01 03:35:06;;;;;;;0.10;0.10;;;;;;;;;;4812735;29;20125;-88
2021/08/01 03:37:32;;;;;;;0.10;0.10;;;;;;;;;;4812983;29;20078;-89
2021/08/01 03:39:58;;;;;;;0.10;0.10;;;;;;;;;;4828010;29;20042;-88
2021/08/01 03:42:24;;;;;;;0.20;0.20;;;;;;;;;;4812718;29;20125;-90
2021/08/01 03:44:50;;;;;;;0.10;0.10;;;;;;;;;;4812474;29;20514;-90
2021/08/01 03:47:17;;;;;;;0.10;0.10;;;;;;;;;;4797757;29;20081;-89
2021/08/01 03:49:43;;;;;;;0.10;0.10;;;;;;;;;;4812703;29;20072;-89
2021/08/01 03:52:10;;;;;;;0.30;0.30;;;;;;;;;;4812528;29;20101;-89
2021/08/01 03:54:38;;;;;;;0.10;0.10;;;;;;;;;;4812979;29;20175;-89
2021/08/01 03:57:04;;;;;;;0.10;0.10;;;;;;;;;;4827405;29;20042;-89
2021/08/01 03:59:34;;;;;;;0.10;0.10;;;;;;;;;;4812922;29;20578;-89
2021/08/01 04:02:00;;;;;;;0.20;0.20;;;;;;;;;;4812527;29;20097;-88
2021/08/01 04:04:26;;;;;;;0.10;0.10;;;;;;;;;;4812288;29;20042;-88
2021/08/01 04:06:52;;;;;;;0.13;0.13;;;;;;;;;;4812156;29;20038;-87
2021/08/01 04:09:18;;;;;;;0.10;0.10;;;;;;;;;;4812218;29;20057;-88
2021/08/01 04:11:44;;;;;;;0.20;0.20;;;;;;;;;;4811964;29;20057;-87
2021/08/01 04:14:12;;;;;;;0.10;0.10;;;;;;;;;;4812777;29;20042;-94
2021/08/01 04:16:56;;;;;;;0.10;0.10;;;;;;;;;;4775152;29;20052;-88
2021/08/01 04:19:26;;;;;;;0.10;0.10;;;;;;;;;;4772260;30;20169;-88
2021/08/01 04:21:52;;;;;;;0.20;0.20;;;;;;;;;;4771668;29;20476;-89
2021/08/01 04:24:18;;;;;;;0.10;0.10;;;;;;;;;;4771721;30;20062;-89
2021/08/01 04:26:44;;;;;;;0.10;0.10;;;;;;;;;;4771692;29;20054;-88
2021/08/01 04:29:10;;;;;;;0.10;0.10;;;;;;;;;;4771699;30;20047;-88
2021/08/01 04:31:36;;;;;;;0.10;0.10;;;;;;;;;;4786548;29;20055;-88
2021/08/01 04:34:02;;;;;;;0.30;0.30;;;;;;;;;;4770770;30;20112;-89
2021/08/01 04:36:28;;;;;;;0.20;0.20;;;;;;;;;;4771402;29;20134;-88
2021/08/01 04:38:54;;;;;;;0.10;0.10;;;;;;;;;;4786375;29;20058;-88
2021/08/01 04:41:20;;;;;;;0.43;0.43;;;;;;;;;;4771688;30;20047;-89
2021/08/01 04:43:46;;;;;;;0.10;0.10;;;;;;;;;;4786331;30;20054;-89
2021/08/01 04:46:12;;;;;;;0.10;0.10;;;;;;;;;;4771137;30;20063;-88
2021/08/01 04:48:38;;;;;;;0.10;0.10;;;;;;;;;;4815137;29;20057;-88
2021/08/01 04:51:05;;;;;;;0.25;0.20;;;;;;;;;;4796314;29;20456;-88
2021/08/01 04:53:31;;;;;;;0.10;0.10;;;;;;;;;;4811552;29;20057;-89
2021/08/01 04:55:58;;;;;;;0.10;0.10;;;;;;;;;;4811483;29;20045;-89
2021/08/01 04:58:28;;;;;;;0.10;0.10;;;;;;;;;;4812486;29;20149;-89
2021/08/01 05:00:54;;;;;;;0.10;0.10;;;;;;;;;;4811177;29;20499;-89
2021/08/01 05:03:20;;;;;;;0.10;0.10;;;;;;;;;;4826457;29;20049;-89
2021/08/01 05:05:46;;;;;;;0.10;0.10;;;;;;;;;;4810975;29;20102;-89
2021/08/01 05:08:12;;;;;;;0.20;0.20;;;;;;;;;;4810922;29;20479;-89
2021/08/01 05:10:38;;;;;;;0.10;0.10;;;;;;;;;;4810977;29;20383;-90
2021/08/01 05:13:07;;;;;;;0.10;0.10;;;;;;;;;;4811252;29;20050;-89
2021/08/01 05:15:33;;;;;;;0.20;0.20;;;;;;;;;;4826615;29;20048;-91
2021/08/01 05:18:02;;;;;;;0.20;0.20;;;;;;;;;;4796603;29;20089;-91
2021/08/01 05:20:28;;;;;;;0.20;0.20;;;;;;;;;;4795704;29;20456;-90
2021/08/01 05:22:54;;;;;;;0.13;0.13;;;;;;;;;;4811120;29;20044;-89
2021/08/01 05:25:20;;;;;;;0.20;0.20;;;;;;;;;;4811298;29;20066;-91
2021/08/01 05:27:46;;;;;;;0.10;0.10;;;;;;;;;;4811171;29;20498;-90
2021/08/01 05:30:12;;;;;;;0.10;0.10;;;;;;;;;;4796051;29;20069;-90
2021/08/01 05:32:38;;;;;;;0.10;0.10;;;;;;;;;;4810883;29;20046;-89
2021/08/01 05:35:05;;;;;;;0.10;0.10;;;;;;;;;;4826171;29;20053;-89
2021/08/01 05:37:31;;;;;;;0.10;0.10;;;;;;;;;;4826213;29;20042;-90
2021/08/01 05:39:57;;;;;;;0.22;0.22;;;;;;;;;;4826377;29;20066;-90
2021/08/01 05:42:23;;;;;;;0.10;0.10;;;;;;;;;;4811175;29;20130;-91
2021/08/01 05:44:49;;;;;;;0.10;0.10;;;;;;;;;;4810687;29;20061;-91
2021/08/01 05:47:16;;;;;;;0.20;0.20;;;;;;;;;;4826238;29;20098;-91
2021/08/01 05:49:42;;;;;;;0.10;0.10;;;;;;;;;;4811034;29;20078;-91
2021/08/01 05:52:08;;;;;;;0.10;0.10;;;;;;;;;;4811024;29;20121;-90
2021/08/01 05:54:34;;;;;;;0.10;0.10;;;;;;;;;;4810673;29;20124;-90
2021/08/01 05:57:00;;;;;;;0.20;0.20;;;;;;;;;;4825649;29;20038;-90
2021/08/01 05:59:26;;;;;;;0.20;0.20;;;;;;;;;;4795503;29;20053;-90
2021/08/01 06:01:52;;;;;;;0.10;0.10;;;;;;;;;;4810820;29;20042;-90
2021/08/01 06:04:18;;;;;;;0.10;0.10;;;;;;;;;;4795733;29;20061;-89
2021/08/01 06:06:44;;;;;;;0.20;0.20;;;;;;;;;;4825748;29;20038;-91
2021/08/01 06:09:10;;;;;;;0.15;0.15;;;;;;;;;;4795652;29;20050;-91
2021/08/01 06:11:37;;;;;;;0.20;0.20;;;;;;;;;;4826013;29;20117;-91
2021/08/01 06:14:03;;;;;;;0.15;0.15;;;;;;;;;;4810790;29;20539;-90
2021/08/01 06:16:30;;;;;;;0.20;0.20;;;;;;;;;;4825524;29;20041;-91
2021/08/01 06:18:57;;;;;;;0.10;0.10;;;;;;;;;;4795738;29;20487;-92
2021/08/01 06:21:23;;;;;;;0.10;0.10;;;;;;;;;;4840666;29;20060;-91
2021/08/01 06:23:51;;;;;;;0.30;0.30;;;;;;;;;;4810494;29;20034;-92
2021/08/01 06:26:17;;;;;;;0.10;0.10;;;;;;;;;;4810323;29;20042;-89
2021/08/01 06:28:44;;;;;;;0.10;0.10;;;;;;;;;;4810322;29;20042;-91
2021/08/01 06:31:10;;;;;;;0.10;0.10;;;;;;;;;;4810620;29;20161;-94
2021/08/01 06:33:58;;;;;;;0.20;0.20;;;;;;;;;;4812838;29;20410;-94
2021/08/01 06:36:25;;;;;;;0.10;0.10;;;;;;;;;;4828133;29;20054;-96
2021/08/01 06:38:58;;;;;;;0.10;0.10;;;;;;;;;;4797581;29;20128;-96
2021/08/01 06:41:25;;;;;;;0.10;0.10;;;;;;;;;;4834619;29;20062;-95
2021/08/01 06:43:52;;;;;;;0.10;0.10;;;;;;;;;;4800047;29;20128;-95
2021/08/01 06:46:18;;;;;;;0.10;0.10;;;;;;;;;;4800477;29;20050;-92
2021/08/01 06:48:44;;;;;;;0.13;0.13;;;;;;;;;;4810659;29;20050;-94
2021/08/01 06:51:10;;;;;;;0.10;0.10;;;;;;;;;;4810789;29;20406;-92
2021/08/01 06:53:36;;;;;;;0.10;0.10;;;;;;;;;;4825736;29;20469;-91
2021/08/01 06:56:08;;;;;;;0.10;0.10;;;;;;;;;;4795829;29;20479;-94
2021/08/01 06:58:56;;;;;;;0.10;0.10;;;;;;;;;;4815349;29;20110;-95
2021/08/01 07:01:22;;;;;;;0.10;0.10;;;;;;;;;;4828838;29;20510;-90
2021/08/01 07:03:48;;;;;;;0.10;0.10;;;;;;;;;;4813498;29;20045;-89
2021/08/01 07:06:16;;;;;;;0.17;0.17;;;;;;;;;;4828390;29;20487;-92
2021/08/01 07:08:42;;;;;;;0.10;0.10;;;;;;;;;;4828360;29;20038;-90
2021/08/01 07:11:08;;;;;;;0.10;0.10;;;;;;;;;;4798662;29;20476;-90
2021/08/01 07:13:35;;;;;;;0.20;0.20;;;;;;;;;;4798221;29;20077;-91
2021/08/01 07:16:04;;;;;;;0.10;0.10;;;;;;;;;;4813397;29;20038;-92
2021/08/01 07:18:31;;;;;;;0.20;0.20;;;;;;;;;;4798438;29;20050;-90
2021/08/01 07:20:57;;;;;;;0.22;0.22;;;;;;;;;;4828307;29;20045;-90
2021/08/01 07:23:27;;;;;;;0.10;0.10;;;;;;;;;;4813282;29;20050;-91
2021/08/01 07:25:53;;;;;;;0.10;0.10;;;;;;;;;;4813440;29;20061;-91
2021/08/01 07:28:19;;;;;;;0.17;0.17;;;;;;;;;;4812871;29;20121;-91
2021/08/01 07:30:46;;;;;;;0.10;0.10;;;;;;;;;;4824331;29;20488;-91
2021/08/01 07:33:12;;;;;;;0.10;0.10;;;;;;;;;;4809891;29;20121;-91
2021/08/01 07:35:39;;;;;;;0.10;0.10;;;;;;;;;;4825173;29;20038;-89
2021/08/01 07:38:05;;;;;;;0.10;0.10;;;;;;;;;;4828650;29;20049;-89
2021/08/01 07:40:31;;;;;;;0.10;0.10;;;;;;;;;;4812377;29;20102;-89
2021/08/01 07:42:57;;;;;;;0.10;0.10;;;;;;;;;;4812829;29;20048;-89
2021/08/01 07:47:49;;;;;;;0.10;0.10;;;;;;;;;;4827370;29;20038;-89
2021/08/01 07:50:15;;;;;;;0.10;0.10;;;;;;;;;;4812380;29;20124;-89
2021/08/01 07:52:41;;;;;;;0.10;0.10;;;;;;;;;;4827467;29;20042;-88
2021/08/01 07:55:08;;;;;;;0.10;0.10;;;;;;;;;;4812384;29;20102;-90
2021/08/01 07:57:35;;;;;;;0.20;0.20;;;;;;;;;;4812983;29;20504;-88
2021/08/01 08:00:04;;;;;;;0.10;0.10;;;;;;;;;;4834367;29;20379;-89
2021/08/01 08:02:30;;;;;;;0.45;0.45;;;;;;;;;;4827217;29;20133;-89
2021/08/01 08:04:56;;;;;;;0.10;0.10;;;;;;;;;;4826887;29;20045;-89
2021/08/01 08:07:22;;;;;;;0.10;0.10;;;;;;;;;;4826772;29;20405;-89
2021/08/01 08:09:49;;;;;;;0.10;0.10;;;;;;;;;;4826939;29;20053;-88
2021/08/01 08:12:15;;;;;;;0.20;0.20;;;;;;;;;;4842158;29;20073;-88
2021/08/01 08:14:41;;;;;;;0.20;0.20;;;;;;;;;;4826834;29;20479;-88
2021/08/01 08:17:07;;;;;;;0.17;0.17;;;;;;;;;;4827079;29;20391;-89
2021/08/01 08:19:34;;;;;;;0.20;0.20;;;;;;;;;;4828351;29;20044;-92
2021/08/01 08:22:00;;;;;;;0.20;0.20;;;;;;;;;;4846437;29;20042;-92
2021/08/01 08:24:32;;;;;;;0.10;0.10;;;;;;;;;;4828010;29;20046;-88
2021/08/01 08:27:00;;;;;;;0.10;0.10;;;;;;;;;;4825920;29;20386;-88
2021/08/01 08:29:26;;;;;;;0.10;0.10;;;;;;;;;;4843092;29;20067;-89
2021/08/01 08:31:53;;;;;;;0.10;0.10;;;;;;;;;;4826461;29;20514;-88
2021/08/01 08:34:19;;;;;;;0.30;0.30;;;;;;;;;;4841647;29;20069;-88
2021/08/01 08:36:49;;;;;;;0.10;0.10;;;;;;;;;;4841750;29;20041;-89
2021/08/01 08:39:15;;;;;;;0.10;0.10;;;;;;;;;;4827093;29;20116;-88
2021/08/01 08:41:42;;;;;;;0.10;0.10;;;;;;;;;;4826361;29;20174;-88
2021/08/01 08:44:08;;;;;;;0.20;0.20;;;;;;;;;;4826489;29;20042;-89
2021/08/01 08:46:34;;;;;;;0.10;0.10;;;;;;;;;;4823283;29;20150;-87
2021/08/01 08:49:00;;;;;;;0.10;0.10;;;;;;;;;;4824091;29;20051;-89
2021/08/01 08:51:26;;;;;;;0.10;0.10;;;;;;;;;;4824960;29;20042;-89
2021/08/01 08:53:53;;;;;;;0.20;0.20;;;;;;;;;;4823518;29;20057;-89
2021/08/01 08:56:19;;;;;;;0.20;0.20;;;;;;;;;;4838341;29;20111;-89
2021/08/01 08:58:50;;;;;;;0.10;0.10;;;;;;;;;;4823262;29;20121;-89
2021/08/01 09:01:16;;;;;;;0.10;0.10;;;;;;;;;;4823060;29;20043;-89
2021/08/01 09:03:42;;;;;;;0.20;0.20;;;;;;;;;;4838313;29;20039;-89
2021/08/01 09:06:08;;;;;;;0.20;0.20;;;;;;;;;;4838849;29;20514;-89
2021/08/01 09:08:36;;;;;;;0.10;0.10;;;;;;;;;;4838213;29;20054;-93
2021/08/01 09:11:02;;;;;;;0.10;0.10;;;;;;;;;;4808107;29;20046;-89
2021/08/01 09:13:47;;;;;;;0.10;0.10;;;;;;;;;;4838321;29;20042;-88
2021/08/01 09:16:13;;;;;;;0.20;0.20;;;;;;;;;;4807992;29;20062;-89
2021/08/01 09:18:39;;;;;;;0.38;0.38;;;;;;;;;;4822522;29;20039;-89
2021/08/01 09:21:05;;;;;;;0.10;0.10;;;;;;;;;;4823053;29;20070;-90
2021/08/01 09:23:32;;;;;;;0.10;0.10;;;;;;;;;;4807985;29;20086;-90
2021/08/01 09:26:05;;;;;;;0.10;0.10;;;;;;;;;;4824252;29;20046;-89
2021/08/01 09:28:31;;;;;;;0.20;0.20;;;;;;;;;;4822715;29;20043;-89
2021/08/01 09:31:02;;;;;;;0.30;0.30;;;;;;;;;;4822924;29;20130;-91
2021/08/01 09:33:34;;;;;;;0.13;0.13;;;;;;;;;;4822981;29;20042;-90
2021/08/01 09:36:11;;;;;;;0.20;0.20;;;;;;;;;;4824201;29;20069;-90
2021/08/01 09:38:47;;;;;;;0.20;0.20;;;;;;;;;;4807815;29;20119;-90
2021/08/01 09:41:13;;;;;;;0.20;0.20;;;;;;;;;;4822902;29;20077;-90
2021/08/01 09:43:49;;;;;;;0.10;0.10;;;;;;;;;;4822884;29;20074;-89
2021/08/01 09:46:15;;;;;;;0.10;0.10;;;;;;;;;;4822515;29;20085;-88
2021/08/01 09:48:41;;;;;;;0.20;0.20;;;;;;;;;;4822650;29;20126;-88
2021/08/01 09:51:08;;;;;;;0.10;0.10;;;;;;;;;;4837564;29;20050;-89
2021/08/01 09:53:34;;;;;;;0.17;0.17;;;;;;;;;;4822438;29;20125;-91
2021/08/01 09:56:17;;;;;;;0.10;0.10;;;;;;;;;;4822647;29;20049;-90
2021/08/01 09:58:43;;;;;;;0.10;0.10;;;;;;;;;;4822440;29;20483;-89
2021/08/01 10:01:09;;;;;;;0.10;0.10;;;;;;;;;;4822603;29;20049;-89
2021/08/01 10:03:39;;;;;;;0.10;0.10;;;;;;;;;;4822327;29;20050;-89
2021/08/01 10:06:13;;;;;;;0.22;0.22;;;;;;;;;;4824251;29;20042;-89
2021/08/01 10:08:42;;;;;;;0.10;0.10;;;;;;;;;;4823060;29;20046;-89
2021/08/01 10:11:17;;;;;;;0.20;0.20;;;;;;;;;;4809213;29;20047;-91
2021/08/01 10:13:47;;;;;;;0.20;0.20;;;;;;;;;;4822958;29;20495;-92
2021/08/01 10:16:13;;;;;;;0.20;0.20;;;;;;;;;;4837468;29;20049;-91
2021/08/01 10:18:40;;;;;;;0.10;0.10;;;;;;;;;;4822739;29;20095;-90
2021/08/01 10:21:06;;;;;;;0.20;0.20;;;;;;;;;;4822516;29;20073;-90
2021/08/01 10:23:37;;;;;;;0.10;0.10;;;;;;;;;;4822801;29;20070;-90
2021/08/01 10:26:06;;;;;;;0.10;0.10;;;;;;;;;;4822600;29;20049;-90
2021/08/01 10:28:32;;;;;;;0.13;0.13;;;;;;;;;;4822246;29;20038;-90
2021/08/01 10:31:08;;;;;;;0.10;0.10;;;;;;;;;;4822847;29;20120;-89
2021/08/01 10:33:46;;;;;;;0.10;0.10;;;;;;;;;;4841124;29;20388;-90
2021/08/01 10:36:12;;;;;;;0.20;0.20;;;;;;;;;;4827960;29;20155;-90
2021/08/01 10:38:38;;;;;;;0.10;0.10;;;;;;;;;;4826425;29;20119;-90
2021/08/01 10:41:05;;;;;;;0.20;0.20;;;;;;;;;;4826237;29;20054;-88
2021/08/01 10:43:31;;;;;;;0.10;0.10;;;;;;;;;;4825587;29;20489;-90
2021/08/01 10:45:57;;;;;;;0.10;0.10;;;;;;;;;;4840716;29;20054;-90
2021/08/01 10:48:24;;;;;;;0.10;0.10;;;;;;;;;;4840774;29;20427;-89
2021/08/01 10:50:50;;;;;;;0.10;0.10;;;;;;;;;;4825085;29;20061;-91
2021/08/01 10:53:19;;;;;;;0.10;0.10;;;;;;;;;;4810795;29;20137;-90
2021/08/01 10:55:46;;;;;;;0.10;0.10;;;;;;;;;;4825430;29;20054;-90
2021/08/01 10:58:12;;;;;;;0.10;0.10;;;;;;;;;;4825126;29;20057;-90
2021/08/01 11:00:56;;;;;;;0.10;0.10;;;;;;;;;;4825075;29;20543;-90
2021/08/01 11:03:23;;;;;;;0.20;0.20;;;;;;;;;;4825425;29;20513;-90
2021/08/01 11:05:50;;;;;;;0.10;0.10;;;;;;;;;;4825045;29;20491;-90
2021/08/01 11:08:16;;;;;;;0.10;0.10;;;;;;;;;;4825211;29;20043;-90
2021/08/01 11:10:43;;;;;;;0.10;0.10;;;;;;;;;;4840364;29;20047;-90
2021/08/01 11:13:24;;;;;;;0.20;0.20;;;;;;;;;;4810275;29;20133;-89
2021/08/01 11:15:51;;;;;;;0.10;0.10;;;;;;;;;;4826438;29;20436;-90
2021/08/01 11:18:29;;;;;;;0.15;0.15;;;;;;;;;;4841030;29;20046;-88
2021/08/01 11:20:56;;;;;;;0.10;0.10;;;;;;;;;;4826728;29;20118;-91
2021/08/01 11:23:22;;;;;;;0.10;0.10;;;;;;;;;;4825291;29;20456;-90
2021/08/01 11:26:28;;;;;;;0.10;0.10;;;;;;;;;;4826148;29;20429;-93
2021/08/01 11:29:06;;;;;;;0.10;0.10;;;;;;;;;;4825281;29;20058;-93
2021/08/01 11:31:32;;;;;;;0.10;0.10;;;;;;;;;;4809407;29;20058;-90
2021/08/01 11:34:16;;;;;;;0.20;0.20;;;;;;;;;;4825494;29;20078;-88
2021/08/01 11:36:42;;;;;;;0.20;0.20;;;;;;;;;;4824527;29;20099;-88
2021/08/01 11:39:09;;;;;;;0.10;0.10;;;;;;;;;;4824242;29;20134;-88
2021/08/01 11:41:41;;;;;;;0.10;0.10;;;;;;;;;;4809359;29;20459;-93
2021/08/01 11:44:07;;;;;;;0.10;0.10;;;;;;;;;;4809901;29;20054;-88
2021/08/01 11:46:57;;;;;;;0.10;0.10;;;;;;;;;;4841817;29;20053;-88
2021/08/01 11:49:27;;;;;;;0.10;0.10;;;;;;;;;;4844022;29;20052;-88
2021/08/01 11:51:54;;;;;;;0.20;0.20;;;;;;;;;;4843959;29;20131;-88
2021/08/01 11:54:25;;;;;;;0.10;0.10;;;;;;;;;;4827247;29;20243;-88
2021/08/01 11:56:51;;;;;;;0.20;0.20;;;;;;;;;;4842660;29;20034;-88
2021/08/01 11:59:17;;;;;;;0.10;0.10;;;;;;;;;;4827219;29;20450;-88
2021/08/01 12:01:43;;;;;;;0.10;0.10;;;;;;;;;;4827222;29;20044;-88
2021/08/01 12:04:09;;;;;;;0.20;0.20;;;;;;;;;;4827264;29;20125;-88
2021/08/01 12:06:36;;;;;;;0.10;0.10;;;;;;;;;;4827141;29;20046;-89
2021/08/01 12:09:21;;;;;;;0.10;0.10;;;;;;;;;;4827091;29;20069;-89
2021/08/01 12:11:51;;;;;;;0.98;0.30;;;;;;;;;;4842342;29;20046;-89
2021/08/01 12:14:17;;;;;;;0.20;0.20;;;;;;;;;;4827069;29;20042;-88
2021/08/01 12:16:53;;;;;;;0.10;0.10;;;;;;;;;;4842260;29;20057;-89
2021/08/01 12:19:19;;;;;;;0.10;0.10;;;;;;;;;;4826933;29;20102;-89
2021/08/01 12:21:46;;;;;;;0.20;0.20;;;;;;;;;;4826963;29;20126;-88
2021/08/01 12:24:31;;;;;;;0.20;0.20;;;;;;;;;;4826895;29;20045;-89
2021/08/01 12:27:01;;;;;;;0.10;0.10;;;;;;;;;;4826872;29;20077;-89
2021/08/01 12:29:31;;;;;;;0.10;0.10;;;;;;;;;;4812092;29;20057;-89
2021/08/01 12:31:57;;;;;;;0.10;0.10;;;;;;;;;;4827210;29;20398;-89
2021/08/01 12:34:23;;;;;;;0.17;0.17;;;;;;;;;;4826892;29;20042;-88
2021/08/01 12:36:50;;;;;;;0.10;0.10;;;;;;;;;;4826728;29;20066;-87
2021/08/01 12:39:18;;;;;;;0.20;0.20;;;;;;;;;;4841806;29;20074;-87
2021/08/01 12:41:47;;;;;;;0.10;0.10;;;;;;;;;;4826606;29;20494;-89
2021/08/01 12:44:14;;;;;;;0.20;0.20;;;;;;;;;;4826455;29;20090;-88
2021/08/01 12:46:40;;;;;;;0.20;0.20;;;;;;;;;;4826371;29;20060;-88
2021/08/01 12:49:06;;;;;;;0.10;0.10;;;;;;;;;;4841717;29;20049;-88
2021/08/01 12:51:33;;;;;;;0.20;0.20;;;;;;;;;;4841797;29;20068;-88
2021/08/01 12:53:59;;;;;;;0.10;0.10;;;;;;;;;;4825750;29;20042;-89
2021/08/01 12:56:25;;;;;;;0.10;0.10;;;;;;;;;;4826529;29;20084;-89
2021/08/01 12:58:51;;;;;;;0.10;0.10;;;;;;;;;;4841351;29;20042;-89
2021/08/01 13:01:17;;;;;;;0.38;0.38;;;;;;;;;;4826347;29;20046;-89
2021/08/01 13:03:44;;;;;;;0.28;0.28;;;;;;;;;;4826362;29;20443;-89
2021/08/01 13:06:11;;;;;;;0.20;0.20;;;;;;;;;;4826349;29;20073;-89
2021/08/01 13:08:38;;;;;;;0.10;0.10;;;;;;;;;;4826095;29;20128;-89
2021/08/01 13:11:04;;;;;;;0.10;0.10;;;;;;;;;;4826084;29;20044;-89
2021/08/01 13:13:30;;;;;;;0.10;0.10;;;;;;;;;;4826498;29;20046;-88
2021/08/01 13:15:58;;;;;;;0.20;0.20;;;;;;;;;;4826124;29;20178;-89
2021/08/01 13:18:25;;;;;;;0.10;0.10;;;;;;;;;;4825925;29;20091;-89
2021/08/01 13:20:51;;;;;;;0.10;0.10;;;;;;;;;;4810694;29;20420;-89
2021/08/01 13:23:30;;;;;;;0.20;0.20;;;;;;;;;;4826074;29;20049;-89
2021/08/01 13:25:56;;;;;;;0.20;0.20;;;;;;;;;;4826025;29;20495;-89
2021/08/01 13:28:41;;;;;;;0.17;0.17;;;;;;;;;;4841062;29;20430;-89
2021/08/01 13:31:11;;;;;;;0.10;0.10;;;;;;;;;;4842204;29;20092;-89
2021/08/01 13:33:38;;;;;;;0.28;0.28;;;;;;;;;;4825821;29;20046;-89
2021/08/01 13:36:04;;;;;;;0.15;0.15;;;;;;;;;;4825649;29;20038;-89
2021/08/01 13:38:30;;;;;;;0.20;0.20;;;;;;;;;;4825986;29;20042;-88
2021/08/01 13:40:56;;;;;;;0.10;0.10;;;;;;;;;;4840883;29;20053;-89
2021/08/01 13:43:22;;;;;;;0.10;0.10;;;;;;;;;;4825730;29;20448;-89
2021/08/01 13:45:49;;;;;;;0.13;0.13;;;;;;;;;;4825610;29;20054;-89
2021/08/01 13:48:15;;;;;;;0.20;0.20;;;;;;;;;;4825677;29;20301;-89
2021/08/01 13:50:41;;;;;;;0.20;0.20;;;;;;;;;;4840676;29;20121;-89
2021/08/01 13:53:07;;;;;;;0.10;0.10;;;;;;;;;;4840735;29;20255;-89
2021/08/01 13:55:33;;;;;;;0.17;0.17;;;;;;;;;;4840778;29;20037;-89
2021/08/01 13:58:06;;;;;;;0.10;0.10;;;;;;;;;;4825687;29;20049;-90
2021/08/01 14:00:32;;;;;;;0.10;0.10;;;;;;;;;;4825553;29;20115;-89
2021/08/01 14:03:00;;;;;;;0.20;0.20;;;;;;;;;;4825789;29;20422;-88
2021/08/01 14:05:30;;;;;;;0.10;0.10;;;;;;;;;;4825112;29;20568;-89
2021/08/01 14:07:56;;;;;;;0.20;0.20;;;;;;;;;;4825304;29;20065;-88
2021/08/01 14:10:22;;;;;;;0.10;0.10;;;;;;;;;;4840477;29;20117;-89
2021/08/01 14:12:48;;;;;;;0.10;0.10;;;;;;;;;;4825310;29;20072;-88
2021/08/01 14:15:14;;;;;;;0.20;0.20;;;;;;;;;;4810245;29;20068;-89
2021/08/01 14:17:40;;;;;;;0.10;0.10;;;;;;;;;;4825465;29;20550;-89
2021/08/01 14:20:07;;;;;;;0.15;0.15;;;;;;;;;;4825246;29;20042;-88
2021/08/01 14:22:33;;;;;;;0.20;0.20;;;;;;;;;;4840497;29;20045;-88
2021/08/01 14:24:59;;;;;;;0.10;0.10;;;;;;;;;;4824818;29;20499;-90
2021/08/01 14:27:25;;;;;;;0.10;0.10;;;;;;;;;;4825129;29;20125;-88
2021/08/01 14:29:51;;;;;;;0.10;0.10;;;;;;;;;;4840243;29;20074;-88
2021/08/01 14:32:21;;;;;;;0.10;0.10;;;;;;;;;;4841367;29;20095;-89
2021/08/01 14:34:47;;;;;;;0.20;0.20;;;;;;;;;;4840246;29;20073;-89
2021/08/01 14:37:14;;;;;;;0.10;0.10;;;;;;;;;;4840147;29;20059;-89
2021/08/01 14:39:40;;;;;;;0.20;0.20;;;;;;;;;;4840087;29;20534;-89
2021/08/01 14:42:07;;;;;;;0.10;0.10;;;;;;;;;;4840422;29;20075;-88
2021/08/01 14:44:33;;;;;;;0.10;0.10;;;;;;;;;;4840197;29;20070;-89
2021/08/01 14:47:00;;;;;;;0.20;0.20;;;;;;;;;;4824882;29;20049;-89
2021/08/01 14:49:31;;;;;;;0.10;0.10;;;;;;;;;;4840297;29;20106;-89